sensor_id;sensor_type;location;lat;lon;timestamp;P1;durP1;ratioP1;P2;durP2;ratioP2
3333;SDS011;1679;50.392;8.008;2023-07-31T00:01:29;3.13;;;2.73;;
3333;SDS011;1679;50.392;8.008;2023-07-31T00:03:55;4.13;;;2.47;;
3333;SDS011;1679;50.392;8.008;2023-07-31T00:06:22;2.57;;;2.27;;
3333;SDS011;1679;50.392;8.008;2023-07-31T00:08:48;4.00;;;2.77;;
3333;SDS011;1679;50.392;8.008;2023-07-31T00:11:14;2.50;;;2.30;;
3333;SDS011;1679;50.392;8.008;2023-07-31T00:13:39;3.57;;;2.67;;
3333;SDS011;1679;50.392;8.008;2023-07-31T00:16:05;4.27;;;2.93;;
3333;SDS011;1679;50.392;8.008;2023-07-31T00:18:31;2.40;;;2.13;;
3333;SDS011;1679;50.392;8.008;2023-07-31T00:20:56;2.60;;;2.40;;
3333;SDS011;1679;50.392;8.008;2023-07-31T00:23:22;6.40;;;2.60;;
3333;SDS011;1679;50.392;8.008;2023-07-31T00:25:47;4.03;;;2.40;;
3333;SDS011;1679;50.392;8.008;2023-07-31T00:28:13;2.50;;;2.20;;
3333;SDS011;1679;50.392;8.008;2023-07-31T00:30:38;2.30;;;2.10;;
3333;SDS011;1679;50.392;8.008;2023-07-31T00:33:04;5.70;;;2.77;;
3333;SDS011;1679;50.392;8.008;2023-07-31T00:35:30;5.03;;;3.20;;
3333;SDS011;1679;50.392;8.008;2023-07-31T00:37:56;3.00;;;2.67;;
3333;SDS011;1679;50.392;8.008;2023-07-31T00:40:22;3.30;;;2.40;;
3333;SDS011;1679;50.392;8.008;2023-07-31T00:42:48;4.47;;;2.53;;
3333;SDS011;1679;50.392;8.008;2023-07-31T00:45:14;4.77;;;2.77;;
3333;SDS011;1679;50.392;8.008;2023-07-31T00:47:39;5.50;;;2.60;;
3333;SDS011;1679;50.392;8.008;2023-07-31T00:50:05;2.53;;;2.23;;
3333;SDS011;1679;50.392;8.008;2023-07-31T00:52:32;5.60;;;2.53;;
3333;SDS011;1679;50.392;8.008;2023-07-31T00:54:57;5.73;;;2.70;;
3333;SDS011;1679;50.392;8.008;2023-07-31T00:57:25;2.60;;;2.40;;
3333;SDS011;1679;50.392;8.008;2023-07-31T00:59:50;2.80;;;2.30;;
3333;SDS011;1679;50.392;8.008;2023-07-31T01:02:16;2.83;;;2.03;;
3333;SDS011;1679;50.392;8.008;2023-07-31T01:04:42;5.00;;;2.83;;
3333;SDS011;1679;50.392;8.008;2023-07-31T01:07:14;5.13;;;2.40;;
3333;SDS011;1679;50.392;8.008;2023-07-31T01:12:53;5.03;;;3.13;;
3333;SDS011;1679;50.392;8.008;2023-07-31T01:15:21;2.80;;;2.00;;
3333;SDS011;1679;50.392;8.008;2023-07-31T01:17:47;3.80;;;2.43;;
3333;SDS011;1679;50.392;8.008;2023-07-31T01:20:21;3.20;;;2.90;;
3333;SDS011;1679;50.392;8.008;2023-07-31T01:22:58;2.80;;;2.60;;
3333;SDS011;1679;50.392;8.008;2023-07-31T01:31:12;2.70;;;2.50;;
3333;SDS011;1679;50.392;8.008;2023-07-31T01:33:41;5.40;;;2.30;;
3333;SDS011;1679;50.392;8.008;2023-07-31T01:36:07;2.80;;;2.60;;
3333;SDS011;1679;50.392;8.008;2023-07-31T01:38:33;4.57;;;2.57;;
3333;SDS011;1679;50.392;8.008;2023-07-31T01:40:59;4.43;;;3.20;;
3333;SDS011;1679;50.392;8.008;2023-07-31T01:43:24;5.90;;;3.30;;
3333;SDS011;1679;50.392;8.008;2023-07-31T01:45:50;3.00;;;2.40;;
3333;SDS011;1679;50.392;8.008;2023-07-31T01:48:16;3.43;;;2.63;;
3333;SDS011;1679;50.392;8.008;2023-07-31T01:50:41;7.07;;;3.37;;
3333;SDS011;1679;50.392;8.008;2023-07-31T01:53:07;2.60;;;2.40;;
3333;SDS011;1679;50.392;8.008;2023-07-31T01:55:32;6.20;;;2.73;;
3333;SDS011;1679;50.392;8.008;2023-07-31T01:57:58;4.47;;;2.40;;
3333;SDS011;1679;50.392;8.008;2023-07-31T02:00:23;10.07;;;3.00;;
3333;SDS011;1679;50.392;8.008;2023-07-31T02:02:49;3.00;;;2.20;;
3333;SDS011;1679;50.392;8.008;2023-07-31T02:05:14;3.10;;;2.73;;
3333;SDS011;1679;50.392;8.008;2023-07-31T02:07:40;4.17;;;2.87;;
3333;SDS011;1679;50.392;8.008;2023-07-31T02:10:06;4.70;;;2.40;;
3333;SDS011;1679;50.392;8.008;2023-07-31T02:12:31;3.30;;;2.60;;
3333;SDS011;1679;50.392;8.008;2023-07-31T02:14:59;3.27;;;2.97;;
3333;SDS011;1679;50.392;8.008;2023-07-31T02:17:24;2.77;;;2.57;;
3333;SDS011;1679;50.392;8.008;2023-07-31T02:19:50;3.60;;;2.30;;
3333;SDS011;1679;50.392;8.008;2023-07-31T02:22:16;2.80;;;2.50;;
3333;SDS011;1679;50.392;8.008;2023-07-31T02:24:41;3.40;;;2.80;;
3333;SDS011;1679;50.392;8.008;2023-07-31T02:27:07;3.47;;;2.77;;
3333;SDS011;1679;50.392;8.008;2023-07-31T02:29:32;3.97;;;2.70;;
3333;SDS011;1679;50.392;8.008;2023-07-31T02:31:58;5.57;;;2.70;;
3333;SDS011;1679;50.392;8.008;2023-07-31T02:34:24;2.60;;;2.13;;
3333;SDS011;1679;50.392;8.008;2023-07-31T02:36:51;4.43;;;3.23;;
3333;SDS011;1679;50.392;8.008;2023-07-31T02:39:17;3.63;;;2.90;;
3333;SDS011;1679;50.392;8.008;2023-07-31T02:41:42;3.20;;;2.53;;
3333;SDS011;1679;50.392;8.008;2023-07-31T02:44:08;4.03;;;2.80;;
3333;SDS011;1679;50.392;8.008;2023-07-31T02:46:35;3.73;;;2.53;;
3333;SDS011;1679;50.392;8.008;2023-07-31T02:49:01;4.47;;;2.97;;
3333;SDS011;1679;50.392;8.008;2023-07-31T02:51:26;3.10;;;2.90;;
3333;SDS011;1679;50.392;8.008;2023-07-31T02:53:52;3.10;;;2.67;;
3333;SDS011;1679;50.392;8.008;2023-07-31T02:56:18;4.07;;;3.20;;
3333;SDS011;1679;50.392;8.008;2023-07-31T02:58:44;4.37;;;2.90;;
3333;SDS011;1679;50.392;8.008;2023-07-31T03:01:09;2.60;;;2.40;;
3333;SDS011;1679;50.392;8.008;2023-07-31T03:03:35;3.20;;;2.73;;
3333;SDS011;1679;50.392;8.008;2023-07-31T03:06:00;3.00;;;2.70;;
3333;SDS011;1679;50.392;8.008;2023-07-31T03:08:26;5.13;;;3.20;;
3333;SDS011;1679;50.392;8.008;2023-07-31T03:10:52;3.17;;;2.87;;
3333;SDS011;1679;50.392;8.008;2023-07-31T03:13:17;3.10;;;2.80;;
3333;SDS011;1679;50.392;8.008;2023-07-31T03:15:43;5.07;;;3.03;;
3333;SDS011;1679;50.392;8.008;2023-07-31T03:18:10;4.33;;;2.73;;
3333;SDS011;1679;50.392;8.008;2023-07-31T03:20:35;4.00;;;2.30;;
3333;SDS011;1679;50.392;8.008;2023-07-31T03:23:01;2.93;;;2.67;;
3333;SDS011;1679;50.392;8.008;2023-07-31T03:25:26;3.37;;;2.80;;
3333;SDS011;1679;50.392;8.008;2023-07-31T03:27:52;5.77;;;3.50;;
3333;SDS011;1679;50.392;8.008;2023-07-31T03:30:17;3.87;;;2.53;;
3333;SDS011;1679;50.392;8.008;2023-07-31T03:32:43;2.80;;;2.57;;
3333;SDS011;1679;50.392;8.008;2023-07-31T03:35:09;3.20;;;2.83;;
3333;SDS011;1679;50.392;8.008;2023-07-31T03:37:34;3.73;;;2.87;;
3333;SDS011;1679;50.392;8.008;2023-07-31T03:39:59;3.50;;;2.73;;
3333;SDS011;1679;50.392;8.008;2023-07-31T03:42:25;3.33;;;2.53;;
3333;SDS011;1679;50.392;8.008;2023-07-31T03:44:50;3.00;;;2.70;;
3333;SDS011;1679;50.392;8.008;2023-07-31T03:47:16;2.83;;;2.50;;
3333;SDS011;1679;50.392;8.008;2023-07-31T03:49:41;3.80;;;3.00;;
3333;SDS011;1679;50.392;8.008;2023-07-31T03:52:07;5.93;;;2.80;;
3333;SDS011;1679;50.392;8.008;2023-07-31T03:54:33;3.37;;;2.80;;
3333;SDS011;1679;50.392;8.008;2023-07-31T03:56:58;2.93;;;2.73;;
3333;SDS011;1679;50.392;8.008;2023-07-31T03:59:24;3.40;;;2.70;;
3333;SDS011;1679;50.392;8.008;2023-07-31T04:01:50;4.50;;;2.77;;
3333;SDS011;1679;50.392;8.008;2023-07-31T04:04:16;2.83;;;2.40;;
3333;SDS011;1679;50.392;8.008;2023-07-31T04:06:41;3.70;;;2.30;;
3333;SDS011;1679;50.392;8.008;2023-07-31T04:09:07;3.97;;;2.63;;
3333;SDS011;1679;50.392;8.008;2023-07-31T04:11:33;5.30;;;2.50;;
3333;SDS011;1679;50.392;8.008;2023-07-31T04:13:58;4.33;;;2.80;;
3333;SDS011;1679;50.392;8.008;2023-07-31T04:16:25;2.70;;;2.50;;
3333;SDS011;1679;50.392;8.008;2023-07-31T04:18:50;2.33;;;2.13;;
3333;SDS011;1679;50.392;8.008;2023-07-31T04:21:16;3.37;;;2.47;;
3333;SDS011;1679;50.392;8.008;2023-07-31T04:23:43;2.73;;;2.20;;
3333;SDS011;1679;50.392;8.008;2023-07-31T04:26:08;3.43;;;2.90;;
3333;SDS011;1679;50.392;8.008;2023-07-31T04:28:35;4.37;;;2.90;;
3333;SDS011;1679;50.392;8.008;2023-07-31T04:31:00;2.50;;;2.40;;
3333;SDS011;1679;50.392;8.008;2023-07-31T04:33:26;2.93;;;2.73;;
3333;SDS011;1679;50.392;8.008;2023-07-31T04:35:51;8.03;;;2.60;;
3333;SDS011;1679;50.392;8.008;2023-07-31T04:38:18;3.37;;;2.80;;
3333;SDS011;1679;50.392;8.008;2023-07-31T04:40:44;2.50;;;2.30;;
3333;SDS011;1679;50.392;8.008;2023-07-31T04:43:10;3.10;;;1.80;;
3333;SDS011;1679;50.392;8.008;2023-07-31T04:45:35;6.80;;;2.60;;
3333;SDS011;1679;50.392;8.008;2023-07-31T04:48:01;3.30;;;2.93;;
3333;SDS011;1679;50.392;8.008;2023-07-31T04:50:26;3.10;;;2.50;;
3333;SDS011;1679;50.392;8.008;2023-07-31T04:52:52;4.10;;;2.70;;
3333;SDS011;1679;50.392;8.008;2023-07-31T04:55:17;3.70;;;2.30;;
3333;SDS011;1679;50.392;8.008;2023-07-31T04:57:43;3.40;;;2.60;;
3333;SDS011;1679;50.392;8.008;2023-07-31T05:00:08;2.73;;;2.37;;
3333;SDS011;1679;50.392;8.008;2023-07-31T05:02:34;3.03;;;2.23;;
3333;SDS011;1679;50.392;8.008;2023-07-31T05:05:00;2.83;;;2.63;;
3333;SDS011;1679;50.392;8.008;2023-07-31T05:07:25;3.77;;;2.57;;
3333;SDS011;1679;50.392;8.008;2023-07-31T05:09:51;3.30;;;2.23;;
3333;SDS011;1679;50.392;8.008;2023-07-31T05:12:16;4.23;;;2.50;;
3333;SDS011;1679;50.392;8.008;2023-07-31T05:14:42;2.83;;;2.50;;
3333;SDS011;1679;50.392;8.008;2023-07-31T05:17:07;2.10;;;2.00;;
3333;SDS011;1679;50.392;8.008;2023-07-31T05:19:33;3.20;;;2.23;;
3333;SDS011;1679;50.392;8.008;2023-07-31T05:21:58;4.03;;;2.50;;
3333;SDS011;1679;50.392;8.008;2023-07-31T05:24:24;3.80;;;2.80;;
3333;SDS011;1679;50.392;8.008;2023-07-31T05:26:49;3.10;;;2.77;;
3333;SDS011;1679;50.392;8.008;2023-07-31T05:29:15;5.77;;;2.30;;
3333;SDS011;1679;50.392;8.008;2023-07-31T05:31:41;3.00;;;2.63;;
3333;SDS011;1679;50.392;8.008;2023-07-31T05:34:07;2.20;;;2.10;;
3333;SDS011;1679;50.392;8.008;2023-07-31T05:36:32;3.10;;;2.50;;
3333;SDS011;1679;50.392;8.008;2023-07-31T05:38:58;2.90;;;2.70;;
3333;SDS011;1679;50.392;8.008;2023-07-31T05:41:23;2.37;;;2.17;;
3333;SDS011;1679;50.392;8.008;2023-07-31T05:43:50;2.93;;;2.53;;
3333;SDS011;1679;50.392;8.008;2023-07-31T05:46:16;4.80;;;2.33;;
3333;SDS011;1679;50.392;8.008;2023-07-31T05:48:42;3.50;;;2.30;;
3333;SDS011;1679;50.392;8.008;2023-07-31T05:51:07;2.97;;;2.43;;
3333;SDS011;1679;50.392;8.008;2023-07-31T05:53:33;2.90;;;2.60;;
3333;SDS011;1679;50.392;8.008;2023-07-31T05:55:58;3.60;;;2.73;;
3333;SDS011;1679;50.392;8.008;2023-07-31T05:58:24;3.30;;;2.73;;
3333;SDS011;1679;50.392;8.008;2023-07-31T06:00:49;4.00;;;3.00;;
3333;SDS011;1679;50.392;8.008;2023-07-31T06:03:15;4.10;;;2.30;;
3333;SDS011;1679;50.392;8.008;2023-07-31T06:05:40;2.70;;;2.50;;
3333;SDS011;1679;50.392;8.008;2023-07-31T06:08:06;3.60;;;2.70;;
3333;SDS011;1679;50.392;8.008;2023-07-31T06:10:31;4.00;;;3.17;;
3333;SDS011;1679;50.392;8.008;2023-07-31T06:12:57;3.60;;;2.60;;
3333;SDS011;1679;50.392;8.008;2023-07-31T06:15:22;4.87;;;2.90;;
3333;SDS011;1679;50.392;8.008;2023-07-31T06:17:48;5.77;;;2.57;;
3333;SDS011;1679;50.392;8.008;2023-07-31T06:20:13;4.97;;;2.83;;
3333;SDS011;1679;50.392;8.008;2023-07-31T06:22:39;3.60;;;2.80;;
3333;SDS011;1679;50.392;8.008;2023-07-31T06:25:07;4.80;;;2.90;;
3333;SDS011;1679;50.392;8.008;2023-07-31T06:27:32;2.70;;;2.30;;
3333;SDS011;1679;50.392;8.008;2023-07-31T06:29:58;4.50;;;2.90;;
3333;SDS011;1679;50.392;8.008;2023-07-31T06:32:25;4.73;;;2.90;;
3333;SDS011;1679;50.392;8.008;2023-07-31T06:34:50;5.43;;;3.00;;
3333;SDS011;1679;50.392;8.008;2023-07-31T06:37:16;3.27;;;3.03;;
3333;SDS011;1679;50.392;8.008;2023-07-31T06:39:41;3.23;;;2.93;;
3333;SDS011;1679;50.392;8.008;2023-07-31T06:42:07;3.37;;;2.93;;
3333;SDS011;1679;50.392;8.008;2023-07-31T06:44:32;6.30;;;3.00;;
3333;SDS011;1679;50.392;8.008;2023-07-31T06:46:58;3.23;;;2.70;;
3333;SDS011;1679;50.392;8.008;2023-07-31T06:49:23;4.47;;;3.10;;
3333;SDS011;1679;50.392;8.008;2023-07-31T06:51:49;3.97;;;2.67;;
3333;SDS011;1679;50.392;8.008;2023-07-31T06:54:14;7.93;;;3.07;;
3333;SDS011;1679;50.392;8.008;2023-07-31T06:56:40;4.63;;;3.10;;
3333;SDS011;1679;50.392;8.008;2023-07-31T06:59:06;3.50;;;3.10;;
3333;SDS011;1679;50.392;8.008;2023-07-31T07:01:32;4.00;;;2.60;;
3333;SDS011;1679;50.392;8.008;2023-07-31T07:03:57;7.50;;;3.10;;
3333;SDS011;1679;50.392;8.008;2023-07-31T07:06:23;5.57;;;3.43;;
3333;SDS011;1679;50.392;8.008;2023-07-31T07:08:49;5.40;;;2.97;;
3333;SDS011;1679;50.392;8.008;2023-07-31T07:11:14;3.23;;;2.97;;
3333;SDS011;1679;50.392;8.008;2023-07-31T07:13:40;5.53;;;3.57;;
3333;SDS011;1679;50.392;8.008;2023-07-31T07:16:07;5.87;;;3.17;;
3333;SDS011;1679;50.392;8.008;2023-07-31T07:18:35;7.17;;;3.70;;
3333;SDS011;1679;50.392;8.008;2023-07-31T07:21:00;4.57;;;3.70;;
3333;SDS011;1679;50.392;8.008;2023-07-31T07:23:27;3.63;;;3.20;;
3333;SDS011;1679;50.392;8.008;2023-07-31T07:25:53;5.07;;;3.40;;
3333;SDS011;1679;50.392;8.008;2023-07-31T07:28:18;3.70;;;3.10;;
3333;SDS011;1679;50.392;8.008;2023-07-31T07:30:44;4.40;;;3.50;;
3333;SDS011;1679;50.392;8.008;2023-07-31T07:33:15;6.10;;;3.37;;
3333;SDS011;1679;50.392;8.008;2023-07-31T07:35:42;3.67;;;3.37;;
3333;SDS011;1679;50.392;8.008;2023-07-31T07:38:07;3.73;;;3.43;;
3333;SDS011;1679;50.392;8.008;2023-07-31T07:40:37;4.53;;;3.30;;
3333;SDS011;1679;50.392;8.008;2023-07-31T07:43:04;3.20;;;2.90;;
3333;SDS011;1679;50.392;8.008;2023-07-31T07:45:29;4.37;;;3.97;;
3333;SDS011;1679;50.392;8.008;2023-07-31T07:47:55;3.47;;;3.17;;
3333;SDS011;1679;50.392;8.008;2023-07-31T07:50:20;4.40;;;3.27;;
3333;SDS011;1679;50.392;8.008;2023-07-31T07:52:46;3.03;;;2.83;;
3333;SDS011;1679;50.392;8.008;2023-07-31T07:55:12;3.77;;;3.30;;
3333;SDS011;1679;50.392;8.008;2023-07-31T07:57:37;7.50;;;3.13;;
3333;SDS011;1679;50.392;8.008;2023-07-31T08:00:04;8.53;;;4.30;;
3333;SDS011;1679;50.392;8.008;2023-07-31T08:02:30;5.07;;;3.33;;
3333;SDS011;1679;50.392;8.008;2023-07-31T08:04:56;7.50;;;3.40;;
3333;SDS011;1679;50.392;8.008;2023-07-31T08:07:23;3.03;;;2.83;;
3333;SDS011;1679;50.392;8.008;2023-07-31T08:09:49;3.97;;;3.17;;
3333;SDS011;1679;50.392;8.008;2023-07-31T08:12:15;2.80;;;2.60;;
3333;SDS011;1679;50.392;8.008;2023-07-31T08:14:40;4.13;;;3.23;;
3333;SDS011;1679;50.392;8.008;2023-07-31T08:17:06;7.33;;;3.10;;
3333;SDS011;1679;50.392;8.008;2023-07-31T08:19:31;3.60;;;3.07;;
3333;SDS011;1679;50.392;8.008;2023-07-31T08:21:57;5.23;;;3.20;;
3333;SDS011;1679;50.392;8.008;2023-07-31T08:24:23;6.00;;;2.67;;
3333;SDS011;1679;50.392;8.008;2023-07-31T08:26:48;4.97;;;3.20;;
3333;SDS011;1679;50.392;8.008;2023-07-31T08:29:14;5.20;;;2.90;;
3333;SDS011;1679;50.392;8.008;2023-07-31T08:31:39;3.43;;;2.97;;
3333;SDS011;1679;50.392;8.008;2023-07-31T08:34:05;4.00;;;3.20;;
3333;SDS011;1679;50.392;8.008;2023-07-31T08:36:31;5.20;;;3.67;;
3333;SDS011;1679;50.392;8.008;2023-07-31T08:39:00;5.10;;;3.30;;
3333;SDS011;1679;50.392;8.008;2023-07-31T08:41:25;5.70;;;3.70;;
3333;SDS011;1679;50.392;8.008;2023-07-31T08:43:53;5.00;;;3.40;;
3333;SDS011;1679;50.392;8.008;2023-07-31T08:46:21;4.83;;;2.80;;
3333;SDS011;1679;50.392;8.008;2023-07-31T08:48:47;5.53;;;4.00;;
3333;SDS011;1679;50.392;8.008;2023-07-31T08:51:14;5.60;;;3.90;;
3333;SDS011;1679;50.392;8.008;2023-07-31T08:53:40;5.53;;;3.73;;
3333;SDS011;1679;50.392;8.008;2023-07-31T08:56:06;7.70;;;4.10;;
3333;SDS011;1679;50.392;8.008;2023-07-31T08:58:32;11.47;;;4.23;;
3333;SDS011;1679;50.392;8.008;2023-07-31T09:01:01;4.33;;;3.70;;
3333;SDS011;1679;50.392;8.008;2023-07-31T09:03:29;4.10;;;3.60;;
3333;SDS011;1679;50.392;8.008;2023-07-31T09:05:58;5.10;;;3.70;;
3333;SDS011;1679;50.392;8.008;2023-07-31T09:08:29;4.23;;;3.40;;
3333;SDS011;1679;50.392;8.008;2023-07-31T09:10:58;4.40;;;4.00;;
3333;SDS011;1679;50.392;8.008;2023-07-31T09:13:31;4.67;;;3.47;;
3333;SDS011;1679;50.392;8.008;2023-07-31T09:15:58;5.03;;;3.87;;
3333;SDS011;1679;50.392;8.008;2023-07-31T09:18:24;6.93;;;4.67;;
3333;SDS011;1679;50.392;8.008;2023-07-31T09:21:05;4.87;;;4.13;;
3333;SDS011;1679;50.392;8.008;2023-07-31T09:23:41;4.20;;;3.50;;
3333;SDS011;1679;50.392;8.008;2023-07-31T09:26:08;4.47;;;3.93;;
3333;SDS011;1679;50.392;8.008;2023-07-31T09:28:33;6.63;;;4.17;;
3333;SDS011;1679;50.392;8.008;2023-07-31T09:30:59;5.83;;;4.23;;
3333;SDS011;1679;50.392;8.008;2023-07-31T09:33:25;3.97;;;3.40;;
3333;SDS011;1679;50.392;8.008;2023-07-31T09:35:50;7.20;;;4.27;;
3333;SDS011;1679;50.392;8.008;2023-07-31T09:38:16;6.40;;;3.83;;
3333;SDS011;1679;50.392;8.008;2023-07-31T09:40:42;4.63;;;3.80;;
3333;SDS011;1679;50.392;8.008;2023-07-31T09:43:10;4.63;;;4.23;;
3333;SDS011;1679;50.392;8.008;2023-07-31T09:45:46;10.10;;;4.10;;
3333;SDS011;1679;50.392;8.008;2023-07-31T09:50:42;5.00;;;4.13;;
3333;SDS011;1679;50.392;8.008;2023-07-31T09:53:12;4.40;;;3.33;;
3333;SDS011;1679;50.392;8.008;2023-07-31T09:55:39;6.70;;;4.20;;
3333;SDS011;1679;50.392;8.008;2023-07-31T09:58:06;5.87;;;4.10;;
3333;SDS011;1679;50.392;8.008;2023-07-31T10:00:33;5.67;;;3.90;;
3333;SDS011;1679;50.392;8.008;2023-07-31T10:03:00;6.03;;;4.50;;
3333;SDS011;1679;50.392;8.008;2023-07-31T10:05:38;5.13;;;3.90;;
3333;SDS011;1679;50.392;8.008;2023-07-31T10:08:07;4.87;;;4.13;;
3333;SDS011;1679;50.392;8.008;2023-07-31T10:10:35;4.80;;;4.33;;
3333;SDS011;1679;50.392;8.008;2023-07-31T10:13:02;6.80;;;4.30;;
3333;SDS011;1679;50.392;8.008;2023-07-31T10:15:29;7.77;;;5.07;;
3333;SDS011;1679;50.392;8.008;2023-07-31T10:17:56;8.07;;;4.90;;
3333;SDS011;1679;50.392;8.008;2023-07-31T10:20:23;5.00;;;4.37;;
3333;SDS011;1679;50.392;8.008;2023-07-31T10:22:51;4.90;;;4.10;;
3333;SDS011;1679;50.392;8.008;2023-07-31T10:25:17;7.00;;;4.20;;
3333;SDS011;1679;50.392;8.008;2023-07-31T10:27:44;5.00;;;3.70;;
3333;SDS011;1679;50.392;8.008;2023-07-31T10:30:12;4.43;;;4.03;;
3333;SDS011;1679;50.392;8.008;2023-07-31T10:32:41;9.90;;;5.53;;
3333;SDS011;1679;50.392;8.008;2023-07-31T10:35:08;4.60;;;3.77;;
3333;SDS011;1679;50.392;8.008;2023-07-31T10:37:39;4.90;;;4.00;;
3333;SDS011;1679;50.392;8.008;2023-07-31T10:40:10;5.00;;;4.07;;
3333;SDS011;1679;50.392;8.008;2023-07-31T10:42:52;4.23;;;3.70;;
3333;SDS011;1679;50.392;8.008;2023-07-31T10:45:26;5.53;;;3.60;;
3333;SDS011;1679;50.392;8.008;2023-07-31T10:50:26;3.43;;;2.90;;
3333;SDS011;1679;50.392;8.008;2023-07-31T10:52:52;5.90;;;3.73;;
3333;SDS011;1679;50.392;8.008;2023-07-31T10:55:32;4.20;;;3.07;;
3333;SDS011;1679;50.392;8.008;2023-07-31T10:58:13;4.13;;;3.40;;
3333;SDS011;1679;50.392;8.008;2023-07-31T11:00:43;3.20;;;2.90;;
3333;SDS011;1679;50.392;8.008;2023-07-31T11:03:13;5.47;;;3.47;;
3333;SDS011;1679;50.392;8.008;2023-07-31T11:05:42;4.43;;;3.40;;
3333;SDS011;1679;50.392;8.008;2023-07-31T11:08:22;3.90;;;3.60;;
3333;SDS011;1679;50.392;8.008;2023-07-31T11:10:50;3.27;;;3.00;;
3333;SDS011;1679;50.392;8.008;2023-07-31T11:13:16;3.93;;;2.77;;
3333;SDS011;1679;50.392;8.008;2023-07-31T11:15:42;2.93;;;2.63;;
3333;SDS011;1679;50.392;8.008;2023-07-31T11:18:08;3.17;;;2.67;;
3333;SDS011;1679;50.392;8.008;2023-07-31T11:20:36;3.30;;;2.93;;
3333;SDS011;1679;50.392;8.008;2023-07-31T11:23:03;3.47;;;2.90;;
3333;SDS011;1679;50.392;8.008;2023-07-31T11:25:30;3.60;;;3.30;;
3333;SDS011;1679;50.392;8.008;2023-07-31T11:28:07;3.47;;;2.90;;
3333;SDS011;1679;50.392;8.008;2023-07-31T11:30:34;3.60;;;3.30;;
3333;SDS011;1679;50.392;8.008;2023-07-31T11:33:01;2.50;;;2.30;;
3333;SDS011;1679;50.392;8.008;2023-07-31T11:35:29;5.00;;;2.70;;
3333;SDS011;1679;50.392;8.008;2023-07-31T11:37:58;4.17;;;2.50;;
3333;SDS011;1679;50.392;8.008;2023-07-31T11:40:24;3.80;;;2.80;;
3333;SDS011;1679;50.392;8.008;2023-07-31T11:42:56;2.80;;;2.60;;
3333;SDS011;1679;50.392;8.008;2023-07-31T11:45:24;6.20;;;3.30;;
3333;SDS011;1679;50.392;8.008;2023-07-31T11:47:54;2.77;;;2.57;;
3333;SDS011;1679;50.392;8.008;2023-07-31T11:50:22;3.03;;;2.83;;
3333;SDS011;1679;50.392;8.008;2023-07-31T11:52:56;2.80;;;2.60;;
3333;SDS011;1679;50.392;8.008;2023-07-31T11:55:24;2.80;;;2.60;;
3333;SDS011;1679;50.392;8.008;2023-07-31T11:57:51;2.63;;;2.40;;
3333;SDS011;1679;50.392;8.008;2023-07-31T12:00:18;2.70;;;2.37;;
3333;SDS011;1679;50.392;8.008;2023-07-31T12:02:44;2.20;;;2.00;;
3333;SDS011;1679;50.392;8.008;2023-07-31T12:05:12;2.97;;;2.60;;
3333;SDS011;1679;50.392;8.008;2023-07-31T12:07:45;2.10;;;1.83;;
3333;SDS011;1679;50.392;8.008;2023-07-31T12:10:21;2.60;;;2.40;;
3333;SDS011;1679;50.392;8.008;2023-07-31T12:18:13;3.17;;;2.23;;
3333;SDS011;1679;50.392;8.008;2023-07-31T12:20:40;2.43;;;2.23;;
3333;SDS011;1679;50.392;8.008;2023-07-31T12:23:07;2.23;;;2.03;;
3333;SDS011;1679;50.392;8.008;2023-07-31T12:25:32;2.37;;;2.17;;
3333;SDS011;1679;50.392;8.008;2023-07-31T12:28:07;3.20;;;1.90;;
3333;SDS011;1679;50.392;8.008;2023-07-31T12:30:37;2.00;;;1.80;;
3333;SDS011;1679;50.392;8.008;2023-07-31T12:33:12;1.93;;;1.67;;
3333;SDS011;1679;50.392;8.008;2023-07-31T12:35:46;3.07;;;1.90;;
3333;SDS011;1679;50.392;8.008;2023-07-31T12:38:13;2.63;;;1.73;;
3333;SDS011;1679;50.392;8.008;2023-07-31T12:40:39;2.00;;;1.77;;
3333;SDS011;1679;50.392;8.008;2023-07-31T12:43:05;3.10;;;1.67;;
3333;SDS011;1679;50.392;8.008;2023-07-31T12:45:31;2.40;;;2.20;;
3333;SDS011;1679;50.392;8.008;2023-07-31T12:47:58;2.27;;;2.07;;
3333;SDS011;1679;50.392;8.008;2023-07-31T12:50:24;3.37;;;2.20;;
3333;SDS011;1679;50.392;8.008;2023-07-31T12:52:50;2.70;;;2.50;;
3333;SDS011;1679;50.392;8.008;2023-07-31T12:55:16;2.47;;;2.27;;
3333;SDS011;1679;50.392;8.008;2023-07-31T12:57:43;2.30;;;2.10;;
3333;SDS011;1679;50.392;8.008;2023-07-31T13:00:08;3.73;;;2.20;;
3333;SDS011;1679;50.392;8.008;2023-07-31T13:02:35;3.00;;;2.80;;
3333;SDS011;1679;50.392;8.008;2023-07-31T13:05:00;2.87;;;2.67;;
3333;SDS011;1679;50.392;8.008;2023-07-31T13:07:26;2.77;;;2.57;;
3333;SDS011;1679;50.392;8.008;2023-07-31T13:09:51;2.60;;;2.40;;
3333;SDS011;1679;50.392;8.008;2023-07-31T13:12:17;3.20;;;2.90;;
3333;SDS011;1679;50.392;8.008;2023-07-31T13:14:42;3.23;;;3.03;;
3333;SDS011;1679;50.392;8.008;2023-07-31T13:17:08;2.53;;;2.33;;
3333;SDS011;1679;50.392;8.008;2023-07-31T13:19:33;5.23;;;2.73;;
3333;SDS011;1679;50.392;8.008;2023-07-31T13:21:59;4.23;;;2.70;;
3333;SDS011;1679;50.392;8.008;2023-07-31T13:24:24;2.60;;;2.03;;
3333;SDS011;1679;50.392;8.008;2023-07-31T13:26:50;2.47;;;2.27;;
3333;SDS011;1679;50.392;8.008;2023-07-31T13:29:16;2.83;;;2.63;;
3333;SDS011;1679;50.392;8.008;2023-07-31T13:31:41;2.87;;;2.67;;
3333;SDS011;1679;50.392;8.008;2023-07-31T13:34:07;3.00;;;2.50;;
3333;SDS011;1679;50.392;8.008;2023-07-31T13:36:32;2.70;;;2.50;;
3333;SDS011;1679;50.392;8.008;2023-07-31T13:38:59;3.93;;;2.50;;
3333;SDS011;1679;50.392;8.008;2023-07-31T13:41:25;5.40;;;2.57;;
3333;SDS011;1679;50.392;8.008;2023-07-31T13:43:51;3.13;;;2.73;;
3333;SDS011;1679;50.392;8.008;2023-07-31T13:46:18;2.63;;;2.40;;
3333;SDS011;1679;50.392;8.008;2023-07-31T13:48:43;2.50;;;2.30;;
3333;SDS011;1679;50.392;8.008;2023-07-31T13:51:10;8.70;;;2.47;;
3333;SDS011;1679;50.392;8.008;2023-07-31T13:53:35;1.70;;;1.60;;
3333;SDS011;1679;50.392;8.008;2023-07-31T13:56:01;2.20;;;2.00;;
3333;SDS011;1679;50.392;8.008;2023-07-31T13:58:27;2.20;;;2.00;;
3333;SDS011;1679;50.392;8.008;2023-07-31T14:00:53;1.87;;;1.70;;
3333;SDS011;1679;50.392;8.008;2023-07-31T14:03:18;1.97;;;1.83;;
3333;SDS011;1679;50.392;8.008;2023-07-31T14:05:44;1.50;;;1.40;;
3333;SDS011;1679;50.392;8.008;2023-07-31T14:08:11;1.83;;;1.30;;
3333;SDS011;1679;50.392;8.008;2023-07-31T14:10:36;2.70;;;1.10;;
3333;SDS011;1679;50.392;8.008;2023-07-31T14:13:02;1.40;;;1.30;;
3333;SDS011;1679;50.392;8.008;2023-07-31T14:15:28;1.80;;;1.50;;
3333;SDS011;1679;50.392;8.008;2023-07-31T14:17:53;2.00;;;1.30;;
3333;SDS011;1679;50.392;8.008;2023-07-31T14:20:19;2.37;;;1.43;;
3333;SDS011;1679;50.392;8.008;2023-07-31T14:22:44;2.83;;;1.60;;
3333;SDS011;1679;50.392;8.008;2023-07-31T14:25:10;2.03;;;1.50;;
3333;SDS011;1679;50.392;8.008;2023-07-31T14:27:36;1.40;;;1.30;;
3333;SDS011;1679;50.392;8.008;2023-07-31T14:30:02;1.87;;;1.40;;
3333;SDS011;1679;50.392;8.008;2023-07-31T14:32:28;3.20;;;1.60;;
3333;SDS011;1679;50.392;8.008;2023-07-31T14:34:54;1.30;;;1.20;;
3333;SDS011;1679;50.392;8.008;2023-07-31T14:37:21;1.80;;;1.10;;
3333;SDS011;1679;50.392;8.008;2023-07-31T14:39:46;1.60;;;1.07;;
3333;SDS011;1679;50.392;8.008;2023-07-31T14:42:12;1.83;;;1.20;;
3333;SDS011;1679;50.392;8.008;2023-07-31T14:44:37;3.67;;;1.87;;
3333;SDS011;1679;50.392;8.008;2023-07-31T14:47:03;2.10;;;1.40;;
3333;SDS011;1679;50.392;8.008;2023-07-31T14:49:29;1.30;;;1.10;;
3333;SDS011;1679;50.392;8.008;2023-07-31T14:51:55;3.70;;;1.10;;
3333;SDS011;1679;50.392;8.008;2023-07-31T14:54:21;2.33;;;1.13;;
3333;SDS011;1679;50.392;8.008;2023-07-31T14:56:46;2.30;;;1.53;;
3333;SDS011;1679;50.392;8.008;2023-07-31T14:59:12;1.40;;;1.10;;
3333;SDS011;1679;50.392;8.008;2023-07-31T15:01:37;1.50;;;1.40;;
3333;SDS011;1679;50.392;8.008;2023-07-31T15:04:03;3.87;;;1.30;;
3333;SDS011;1679;50.392;8.008;2023-07-31T15:06:29;1.90;;;1.33;;
3333;SDS011;1679;50.392;8.008;2023-07-31T15:08:54;5.90;;;1.70;;
3333;SDS011;1679;50.392;8.008;2023-07-31T15:11:19;2.63;;;1.77;;
3333;SDS011;1679;50.392;8.008;2023-07-31T15:13:45;5.13;;;2.17;;
3333;SDS011;1679;50.392;8.008;2023-07-31T15:16:11;1.70;;;1.60;;
3333;SDS011;1679;50.392;8.008;2023-07-31T15:18:36;1.20;;;1.10;;
3333;SDS011;1679;50.392;8.008;2023-07-31T15:21:02;1.30;;;1.20;;
3333;SDS011;1679;50.392;8.008;2023-07-31T15:23:27;2.13;;;1.23;;
3333;SDS011;1679;50.392;8.008;2023-07-31T15:25:53;1.37;;;1.27;;
3333;SDS011;1679;50.392;8.008;2023-07-31T15:28:18;3.50;;;2.30;;
3333;SDS011;1679;50.392;8.008;2023-07-31T15:30:44;1.57;;;1.33;;